sensor_id;sensor_type;location;lat;lon;timestamp;temperature;humidity
30304;DHT22;17112;48.636;10.152;2023-02-26T00:00:35;2.80;63.30
30304;DHT22;17112;48.636;10.152;2023-02-26T00:03:00;2.70;64.00
30304;DHT22;17112;48.636;10.152;2023-02-26T00:05:26;2.70;63.20
30304;DHT22;17112;48.636;10.152;2023-02-26T00:07:52;2.70;63.20
30304;DHT22;17112;48.636;10.152;2023-02-26T00:10:18;2.70;63.10
30304;DHT22;17112;48.636;10.152;2023-02-26T00:12:44;2.70;63.10
30304;DHT22;17112;48.636;10.152;2023-02-26T00:15:11;2.70;63.10
30304;DHT22;17112;48.636;10.152;2023-02-26T00:20:14;2.70;63.60
30304;DHT22;17112;48.636;10.152;2023-02-26T00:22:42;2.60;63.60
30304;DHT22;17112;48.636;10.152;2023-02-26T00:25:08;2.60;63.70
30304;DHT22;17112;48.636;10.152;2023-02-26T00:27:35;2.60;63.70
30304;DHT22;17112;48.636;10.152;2023-02-26T00:30:03;2.50;63.60
30304;DHT22;17112;48.636;10.152;2023-02-26T00:32:29;2.60;63.60
30304;DHT22;17112;48.636;10.152;2023-02-26T00:34:55;2.60;63.60
30304;DHT22;17112;48.636;10.152;2023-02-26T00:42:52;2.70;63.50
30304;DHT22;17112;48.636;10.152;2023-02-26T00:45:19;2.60;63.30
30304;DHT22;17112;48.636;10.152;2023-02-26T00:50:22;2.70;63.60
30304;DHT22;17112;48.636;10.152;2023-02-26T00:55:34;2.60;63.60
30304;DHT22;17112;48.636;10.152;2023-02-26T00:58:00;3.00;63.80
30304;DHT22;17112;48.636;10.152;2023-02-26T01:00:26;2.70;63.70
30304;DHT22;17112;48.636;10.152;2023-02-26T01:02:51;2.70;63.70
30304;DHT22;17112;48.636;10.152;2023-02-26T01:05:18;2.70;63.80
30304;DHT22;17112;48.636;10.152;2023-02-26T01:10:25;2.70;63.90
30304;DHT22;17112;48.636;10.152;2023-02-26T01:12:51;2.80;63.80
30304;DHT22;17112;48.636;10.152;2023-02-26T01:15:17;2.80;63.80
30304;DHT22;17112;48.636;10.152;2023-02-26T01:17:50;2.80;63.70
30304;DHT22;17112;48.636;10.152;2023-02-26T01:20:20;2.80;63.80
30304;DHT22;17112;48.636;10.152;2023-02-26T01:23:08;2.90;63.80
30304;DHT22;17112;48.636;10.152;2023-02-26T01:28:22;2.90;63.70
30304;DHT22;17112;48.636;10.152;2023-02-26T01:30:50;2.90;63.60
30304;DHT22;17112;48.636;10.152;2023-02-26T01:33:43;2.90;63.50
30304;DHT22;17112;48.636;10.152;2023-02-26T01:36:21;2.90;63.40
30304;DHT22;17112;48.636;10.152;2023-02-26T01:41:26;2.90;63.20
30304;DHT22;17112;48.636;10.152;2023-02-26T01:46:51;2.80;62.80
30304;DHT22;17112;48.636;10.152;2023-02-26T01:49:19;2.80;62.90
30304;DHT22;17112;48.636;10.152;2023-02-26T01:51:49;2.70;62.80
30304;DHT22;17112;48.636;10.152;2023-02-26T01:54:17;2.70;62.80
30304;DHT22;17112;48.636;10.152;2023-02-26T01:56:44;2.70;62.50
30304;DHT22;17112;48.636;10.152;2023-02-26T01:59:14;2.80;62.70
30304;DHT22;17112;48.636;10.152;2023-02-26T02:01:40;2.80;62.60
30304;DHT22;17112;48.636;10.152;2023-02-26T02:04:10;2.50;62.40
30304;DHT22;17112;48.636;10.152;2023-02-26T02:06:37;2.50;62.30
30304;DHT22;17112;48.636;10.152;2023-02-26T02:09:07;2.40;62.30
30304;DHT22;17112;48.636;10.152;2023-02-26T02:11:34;2.40;62.40
30304;DHT22;17112;48.636;10.152;2023-02-26T02:14:20;2.40;62.60
30304;DHT22;17112;48.636;10.152;2023-02-26T02:25:34;2.50;62.40
30304;DHT22;17112;48.636;10.152;2023-02-26T02:31:13;2.20;62.40
30304;DHT22;17112;48.636;10.152;2023-02-26T02:33:48;2.20;62.50
30304;DHT22;17112;48.636;10.152;2023-02-26T02:36:16;2.40;62.60
30304;DHT22;17112;48.636;10.152;2023-02-26T02:39:00;2.20;62.60
30304;DHT22;17112;48.636;10.152;2023-02-26T02:41:31;2.20;62.60
30304;DHT22;17112;48.636;10.152;2023-02-26T02:44:05;2.20;62.60
30304;DHT22;17112;48.636;10.152;2023-02-26T02:46:34;2.10;62.40
30304;DHT22;17112;48.636;10.152;2023-02-26T02:49:12;2.30;62.70
30304;DHT22;17112;48.636;10.152;2023-02-26T02:54:41;2.10;62.50
30304;DHT22;17112;48.636;10.152;2023-02-26T02:57:22;2.00;62.40
30304;DHT22;17112;48.636;10.152;2023-02-26T02:59:53;2.00;62.40
30304;DHT22;17112;48.636;10.152;2023-02-26T03:02:41;2.00;62.30
30304;DHT22;17112;48.636;10.152;2023-02-26T03:05:07;2.00;62.20
30304;DHT22;17112;48.636;10.152;2023-02-26T03:07:37;2.00;62.30
30304;DHT22;17112;48.636;10.152;2023-02-26T03:10:05;1.90;62.30
30304;DHT22;17112;48.636;10.152;2023-02-26T03:12:31;1.90;62.30
30304;DHT22;17112;48.636;10.152;2023-02-26T03:14:58;1.80;62.30
30304;DHT22;17112;48.636;10.152;2023-02-26T03:17:42;1.90;62.40
30304;DHT22;17112;48.636;10.152;2023-02-26T03:23:04;1.70;62.60
30304;DHT22;17112;48.636;10.152;2023-02-26T03:25:57;1.70;62.60
30304;DHT22;17112;48.636;10.152;2023-02-26T03:31:08;1.70;62.70
30304;DHT22;17112;48.636;10.152;2023-02-26T03:33:53;1.70;62.80
30304;DHT22;17112;48.636;10.152;2023-02-26T03:37:07;1.60;62.70
30304;DHT22;17112;48.636;10.152;2023-02-26T03:39:37;1.60;62.60
30304;DHT22;17112;48.636;10.152;2023-02-26T03:45:01;1.60;62.60
30304;DHT22;17112;48.636;10.152;2023-02-26T03:47:29;1.60;62.40
30304;DHT22;17112;48.636;10.152;2023-02-26T03:52:25;1.50;62.40
30304;DHT22;17112;48.636;10.152;2023-02-26T03:57:24;1.40;62.60
30304;DHT22;17112;48.636;10.152;2023-02-26T03:59:50;1.40;62.60
30304;DHT22;17112;48.636;10.152;2023-02-26T04:02:26;1.40;62.60
30304;DHT22;17112;48.636;10.152;2023-02-26T04:04:56;1.40;61.90
30304;DHT22;17112;48.636;10.152;2023-02-26T04:07:23;1.30;61.90
30304;DHT22;17112;48.636;10.152;2023-02-26T04:09:50;1.30;61.60
30304;DHT22;17112;48.636;10.152;2023-02-26T04:12:24;1.50;61.80
30304;DHT22;17112;48.636;10.152;2023-02-26T04:14:50;1.30;61.70
30304;DHT22;17112;48.636;10.152;2023-02-26T04:17:17;1.20;61.70
30304;DHT22;17112;48.636;10.152;2023-02-26T04:19:42;1.20;61.60
30304;DHT22;17112;48.636;10.152;2023-02-26T04:22:08;1.20;61.70
30304;DHT22;17112;48.636;10.152;2023-02-26T04:24:34;1.20;62.20
30304;DHT22;17112;48.636;10.152;2023-02-26T04:27:00;1.20;61.50
30304;DHT22;17112;48.636;10.152;2023-02-26T04:29:26;1.30;61.70
30304;DHT22;17112;48.636;10.152;2023-02-26T04:31:52;1.10;61.60
30304;DHT22;17112;48.636;10.152;2023-02-26T04:34:18;1.20;61.60
30304;DHT22;17112;48.636;10.152;2023-02-26T04:36:44;1.10;61.80
30304;DHT22;17112;48.636;10.152;2023-02-26T04:39:10;1.10;61.50
30304;DHT22;17112;48.636;10.152;2023-02-26T04:41:37;1.00;61.50
30304;DHT22;17112;48.636;10.152;2023-02-26T04:44:03;1.20;61.60
30304;DHT22;17112;48.636;10.152;2023-02-26T04:46:29;1.00;61.50
30304;DHT22;17112;48.636;10.152;2023-02-26T04:48:55;1.00;61.60
30304;DHT22;17112;48.636;10.152;2023-02-26T04:51:21;0.90;61.70
30304;DHT22;17112;48.636;10.152;2023-02-26T04:53:47;1.00;61.80
30304;DHT22;17112;48.636;10.152;2023-02-26T04:56:12;0.90;61.70
30304;DHT22;17112;48.636;10.152;2023-02-26T04:58:38;0.90;61.70
30304;DHT22;17112;48.636;10.152;2023-02-26T05:01:04;0.80;61.80
30304;DHT22;17112;48.636;10.152;2023-02-26T05:03:30;0.80;61.80
30304;DHT22;17112;48.636;10.152;2023-02-26T05:05:56;1.00;62.00
30304;DHT22;17112;48.636;10.152;2023-02-26T05:08:21;0.80;61.90
30304;DHT22;17112;48.636;10.152;2023-02-26T05:10:47;0.90;62.00
30304;DHT22;17112;48.636;10.152;2023-02-26T05:13:13;0.90;62.10
30304;DHT22;17112;48.636;10.152;2023-02-26T05:15:39;0.80;62.00
30304;DHT22;17112;48.636;10.152;2023-02-26T05:18:05;0.70;62.00
30304;DHT22;17112;48.636;10.152;2023-02-26T05:20:30;0.70;62.10
30304;DHT22;17112;48.636;10.152;2023-02-26T05:22:56;0.70;62.20
30304;DHT22;17112;48.636;10.152;2023-02-26T05:25:21;0.60;62.20
30304;DHT22;17112;48.636;10.152;2023-02-26T05:27:47;0.60;62.30
30304;DHT22;17112;48.636;10.152;2023-02-26T05:30:14;0.60;62.40
30304;DHT22;17112;48.636;10.152;2023-02-26T05:32:41;0.60;62.60
30304;DHT22;17112;48.636;10.152;2023-02-26T05:35:07;0.80;62.80
30304;DHT22;17112;48.636;10.152;2023-02-26T05:37:32;0.60;62.80
30304;DHT22;17112;48.636;10.152;2023-02-26T05:39:58;0.60;62.90
30304;DHT22;17112;48.636;10.152;2023-02-26T05:42:24;0.90;63.10
30304;DHT22;17112;48.636;10.152;2023-02-26T05:44:51;0.70;63.00
30304;DHT22;17112;48.636;10.152;2023-02-26T05:47:16;0.70;63.10
30304;DHT22;17112;48.636;10.152;2023-02-26T05:49:42;0.70;63.10
30304;DHT22;17112;48.636;10.152;2023-02-26T05:52:08;0.70;63.00
30304;DHT22;17112;48.636;10.152;2023-02-26T05:54:33;0.70;63.00
30304;DHT22;17112;48.636;10.152;2023-02-26T05:56:59;0.80;63.00
30304;DHT22;17112;48.636;10.152;2023-02-26T05:59:25;0.80;62.90
30304;DHT22;17112;48.636;10.152;2023-02-26T06:01:50;0.80;62.80
30304;DHT22;17112;48.636;10.152;2023-02-26T06:04:16;1.00;63.00
30304;DHT22;17112;48.636;10.152;2023-02-26T06:06:42;0.90;62.90
30304;DHT22;17112;48.636;10.152;2023-02-26T06:09:07;0.70;62.80
30304;DHT22;17112;48.636;10.152;2023-02-26T06:11:33;0.80;62.90
30304;DHT22;17112;48.636;10.152;2023-02-26T06:13:59;0.80;62.90
30304;DHT22;17112;48.636;10.152;2023-02-26T06:16:25;0.80;63.00
30304;DHT22;17112;48.636;10.152;2023-02-26T06:18:50;1.00;63.20
30304;DHT22;17112;48.636;10.152;2023-02-26T06:21:17;0.80;63.00
30304;DHT22;17112;48.636;10.152;2023-02-26T06:23:43;0.80;63.10
30304;DHT22;17112;48.636;10.152;2023-02-26T06:26:09;0.90;63.20
30304;DHT22;17112;48.636;10.152;2023-02-26T06:28:34;1.00;63.30
30304;DHT22;17112;48.636;10.152;2023-02-26T06:31:00;0.90;63.10
30304;DHT22;17112;48.636;10.152;2023-02-26T06:33:26;1.00;63.20
30304;DHT22;17112;48.636;10.152;2023-02-26T06:35:52;1.00;63.10
30304;DHT22;17112;48.636;10.152;2023-02-26T06:38:18;1.00;63.10
30304;DHT22;17112;48.636;10.152;2023-02-26T06:40:45;1.00;63.20
30304;DHT22;17112;48.636;10.152;2023-02-26T06:43:11;1.00;63.20
30304;DHT22;17112;48.636;10.152;2023-02-26T06:45:37;1.10;63.20
30304;DHT22;17112;48.636;10.152;2023-02-26T06:48:03;1.20;63.20
30304;DHT22;17112;48.636;10.152;2023-02-26T06:50:28;1.40;63.40
30304;DHT22;17112;48.636;10.152;2023-02-26T06:52:54;1.30;63.40
30304;DHT22;17112;48.636;10.152;2023-02-26T06:55:20;1.30;63.20
30304;DHT22;17112;48.636;10.152;2023-02-26T06:57:55;1.60;63.30
30304;DHT22;17112;48.636;10.152;2023-02-26T07:00:22;1.40;63.00
30304;DHT22;17112;48.636;10.152;2023-02-26T07:02:48;1.50;63.10
30304;DHT22;17112;48.636;10.152;2023-02-26T07:05:14;1.60;63.10
30304;DHT22;17112;48.636;10.152;2023-02-26T07:07:39;1.70;63.10
30304;DHT22;17112;48.636;10.152;2023-02-26T07:10:06;1.70;62.70
30304;DHT22;17112;48.636;10.152;2023-02-26T07:12:31;1.80;62.50
30304;DHT22;17112;48.636;10.152;2023-02-26T07:14:57;1.80;62.30
30304;DHT22;17112;48.636;10.152;2023-02-26T07:17:23;1.80;62.20
30304;DHT22;17112;48.636;10.152;2023-02-26T07:19:51;1.80;62.00
30304;DHT22;17112;48.636;10.152;2023-02-26T07:22:17;1.90;62.30
30304;DHT22;17112;48.636;10.152;2023-02-26T07:24:43;1.80;62.20
30304;DHT22;17112;48.636;10.152;2023-02-26T07:27:10;1.80;62.40
30304;DHT22;17112;48.636;10.152;2023-02-26T07:29:36;1.80;62.40
30304;DHT22;17112;48.636;10.152;2023-02-26T07:32:03;1.80;62.50
30304;DHT22;17112;48.636;10.152;2023-02-26T07:34:28;1.90;62.70
30304;DHT22;17112;48.636;10.152;2023-02-26T07:36:54;2.00;62.70
30304;DHT22;17112;48.636;10.152;2023-02-26T07:39:20;1.90;62.40
30304;DHT22;17112;48.636;10.152;2023-02-26T07:41:45;1.90;62.50
30304;DHT22;17112;48.636;10.152;2023-02-26T07:44:11;1.90;62.50
30304;DHT22;17112;48.636;10.152;2023-02-26T07:46:37;2.00;62.80
30304;DHT22;17112;48.636;10.152;2023-02-26T07:49:02;2.00;62.90
30304;DHT22;17112;48.636;10.152;2023-02-26T07:51:28;2.10;63.10
30304;DHT22;17112;48.636;10.152;2023-02-26T07:53:54;2.30;63.20
30304;DHT22;17112;48.636;10.152;2023-02-26T07:56:19;2.40;62.80
30304;DHT22;17112;48.636;10.152;2023-02-26T07:58:45;2.60;62.40
30304;DHT22;17112;48.636;10.152;2023-02-26T08:01:11;2.60;62.40
30304;DHT22;17112;48.636;10.152;2023-02-26T08:03:36;2.70;61.60
30304;DHT22;17112;48.636;10.152;2023-02-26T08:06:02;2.80;61.60
30304;DHT22;17112;48.636;10.152;2023-02-26T08:08:29;2.80;61.40
30304;DHT22;17112;48.636;10.152;2023-02-26T08:10:55;3.10;61.30
30304;DHT22;17112;48.636;10.152;2023-02-26T08:13:20;2.80;61.00
30304;DHT22;17112;48.636;10.152;2023-02-26T08:15:49;2.90;60.10
30304;DHT22;17112;48.636;10.152;2023-02-26T08:18:14;2.90;60.60
30304;DHT22;17112;48.636;10.152;2023-02-26T08:20:40;3.00;60.30
30304;DHT22;17112;48.636;10.152;2023-02-26T08:23:06;3.00;60.50
30304;DHT22;17112;48.636;10.152;2023-02-26T08:25:31;3.20;60.50
30304;DHT22;17112;48.636;10.152;2023-02-26T08:27:57;3.10;60.80
30304;DHT22;17112;48.636;10.152;2023-02-26T08:30:23;3.10;60.90
30304;DHT22;17112;48.636;10.152;2023-02-26T08:32:49;3.20;61.10
30304;DHT22;17112;48.636;10.152;2023-02-26T08:35:15;3.30;60.90
30304;DHT22;17112;48.636;10.152;2023-02-26T08:37:41;3.40;61.10
30304;DHT22;17112;48.636;10.152;2023-02-26T08:40:08;3.50;60.70
30304;DHT22;17112;48.636;10.152;2023-02-26T08:42:34;3.60;60.30
30304;DHT22;17112;48.636;10.152;2023-02-26T08:45:00;3.70;60.10
30304;DHT22;17112;48.636;10.152;2023-02-26T08:47:25;3.70;60.20
30304;DHT22;17112;48.636;10.152;2023-02-26T08:49:51;3.70;59.80
30304;DHT22;17112;48.636;10.152;2023-02-26T08:52:18;3.70;59.80
30304;DHT22;17112;48.636;10.152;2023-02-26T08:54:44;3.70;59.70
30304;DHT22;17112;48.636;10.152;2023-02-26T08:57:09;3.70;59.20
30304;DHT22;17112;48.636;10.152;2023-02-26T08:59:35;3.60;59.60
30304;DHT22;17112;48.636;10.152;2023-02-26T09:02:01;3.80;59.20
30304;DHT22;17112;48.636;10.152;2023-02-26T09:04:26;3.50;59.40
30304;DHT22;17112;48.636;10.152;2023-02-26T09:06:53;3.50;59.50
30304;DHT22;17112;48.636;10.152;2023-02-26T09:09:19;3.50;59.20
30304;DHT22;17112;48.636;10.152;2023-02-26T09:11:45;3.50;59.60
30304;DHT22;17112;48.636;10.152;2023-02-26T09:14:11;3.40;59.30
30304;DHT22;17112;48.636;10.152;2023-02-26T09:16:36;3.70;59.70
30304;DHT22;17112;48.636;10.152;2023-02-26T09:19:05;3.40;59.60
30304;DHT22;17112;48.636;10.152;2023-02-26T09:21:31;3.40;59.40
30304;DHT22;17112;48.636;10.152;2023-02-26T09:23:57;3.40;59.60
30304;DHT22;17112;48.636;10.152;2023-02-26T09:26:22;3.40;59.50
30304;DHT22;17112;48.636;10.152;2023-02-26T09:28:48;3.40;59.70
30304;DHT22;17112;48.636;10.152;2023-02-26T09:31:14;3.40;59.90
30304;DHT22;17112;48.636;10.152;2023-02-26T09:33:40;3.70;60.10
30304;DHT22;17112;48.636;10.152;2023-02-26T09:36:06;3.40;59.70
30304;DHT22;17112;48.636;10.152;2023-02-26T09:38:32;3.40;59.80
30304;DHT22;17112;48.636;10.152;2023-02-26T09:41:06;3.40;59.50
30304;DHT22;17112;48.636;10.152;2023-02-26T09:46:20;3.40;59.60
30304;DHT22;17112;48.636;10.152;2023-02-26T09:48:47;3.30;59.60
30304;DHT22;17112;48.636;10.152;2023-02-26T09:51:18;3.30;59.80
30304;DHT22;17112;48.636;10.152;2023-02-26T09:53:47;3.30;60.20
30304;DHT22;17112;48.636;10.152;2023-02-26T09:56:16;3.30;60.20
30304;DHT22;17112;48.636;10.152;2023-02-26T09:58:43;3.30;60.00
30304;DHT22;17112;48.636;10.152;2023-02-26T10:04:13;3.30;60.20
30304;DHT22;17112;48.636;10.152;2023-02-26T10:12:19;3.40;60.80
30304;DHT22;17112;48.636;10.152;2023-02-26T10:25:48;3.60;60.70
30304;DHT22;17112;48.636;10.152;2023-02-26T10:31:25;3.60;60.50
30304;DHT22;17112;48.636;10.152;2023-02-26T10:36:26;3.60;60.50
30304;DHT22;17112;48.636;10.152;2023-02-26T10:39:14;3.70;60.90
30304;DHT22;17112;48.636;10.152;2023-02-26T10:41:40;3.70;61.10
30304;DHT22;17112;48.636;10.152;2023-02-26T10:44:27;3.80;61.30
30304;DHT22;17112;48.636;10.152;2023-02-26T10:47:11;3.90;61.20
30304;DHT22;17112;48.636;10.152;2023-02-26T10:50:03;4.00;61.20
30304;DHT22;17112;48.636;10.152;2023-02-26T10:52:32;4.10;60.90
30304;DHT22;17112;48.636;10.152;2023-02-26T10:58:00;4.20;60.10
30304;DHT22;17112;48.636;10.152;2023-02-26T11:00:27;4.20;59.70
30304;DHT22;17112;48.636;10.152;2023-02-26T11:02:54;4.20;59.80
30304;DHT22;17112;48.636;10.152;2023-02-26T11:05:24;4.20;59.80
30304;DHT22;17112;48.636;10.152;2023-02-26T11:07:56;4.20;60.10
30304;DHT22;17112;48.636;10.152;2023-02-26T11:10:30;4.20;60.30
30304;DHT22;17112;48.636;10.152;2023-02-26T11:13:00;4.20;59.80
30304;DHT22;17112;48.636;10.152;2023-02-26T11:15:26;4.20;59.70
30304;DHT22;17112;48.636;10.152;2023-02-26T11:17:55;4.10;59.40
30304;DHT22;17112;48.636;10.152;2023-02-26T11:20:43;4.10;59.50
30304;DHT22;17112;48.636;10.152;2023-02-26T11:23:16;4.00;59.60
30304;DHT22;17112;48.636;10.152;2023-02-26T11:25:43;3.90;59.60
30304;DHT22;17112;48.636;10.152;2023-02-26T11:28:36;3.90;59.90
30304;DHT22;17112;48.636;10.152;2023-02-26T11:31:08;3.80;59.70
30304;DHT22;17112;48.636;10.152;2023-02-26T11:33:44;3.80;60.10
30304;DHT22;17112;48.636;10.152;2023-02-26T11:36:16;3.70;60.50
30304;DHT22;17112;48.636;10.152;2023-02-26T11:38:51;3.70;60.60
30304;DHT22;17112;48.636;10.152;2023-02-26T11:41:17;3.70;60.70
30304;DHT22;17112;48.636;10.152;2023-02-26T11:43:47;3.70;60.80
30304;DHT22;17112;48.636;10.152;2023-02-26T11:46:13;3.70;61.00
30304;DHT22;17112;48.636;10.152;2023-02-26T11:48:46;3.70;60.90
30304;DHT22;17112;48.636;10.152;2023-02-26T11:51:15;3.70;60.80
30304;DHT22;17112;48.636;10.152;2023-02-26T11:53:50;3.80;61.00
30304;DHT22;17112;48.636;10.152;2023-02-26T11:56:42;3.80;60.70
30304;DHT22;17112;48.636;10.152;2023-02-26T11:59:19;3.90;60.80
30304;DHT22;17112;48.636;10.152;2023-02-26T12:01:46;4.00;60.60
30304;DHT22;17112;48.636;10.152;2023-02-26T12:04:13;3.90;60.50
30304;DHT22;17112;48.636;10.152;2023-02-26T12:06:40;4.10;60.10
30304;DHT22;17112;48.636;10.152;2023-02-26T12:09:11;3.80;60.40
30304;DHT22;17112;48.636;10.152;2023-02-26T12:20:01;4.00;60.70
30304;DHT22;17112;48.636;10.152;2023-02-26T12:26:06;4.10;60.20
30304;DHT22;17112;48.636;10.152;2023-02-26T12:34:51;4.10;61.00
30304;DHT22;17112;48.636;10.152;2023-02-26T12:37:45;4.10;60.30
30304;DHT22;17112;48.636;10.152;2023-02-26T12:40:44;4.00;60.40
30304;DHT22;17112;48.636;10.152;2023-02-26T12:46:37;4.00;60.20
30304;DHT22;17112;48.636;10.152;2023-02-26T12:49:15;4.10;60.20
30304;DHT22;17112;48.636;10.152;2023-02-26T13:00:17;4.00;60.10
30304;DHT22;17112;48.636;10.152;2023-02-26T13:06:20;4.00;60.30
30304;DHT22;17112;48.636;10.152;2023-02-26T13:22:02;3.90;60.00
30304;DHT22;17112;48.636;10.152;2023-02-26T13:25:02;3.90;60.20
30304;DHT22;17112;48.636;10.152;2023-02-26T13:27:36;3.90;59.80
30304;DHT22;17112;48.636;10.152;2023-02-26T13:30:19;4.00;60.00
30304;DHT22;17112;48.636;10.152;2023-02-26T13:32:48;4.00;59.60
30304;DHT22;17112;48.636;10.152;2023-02-26T13:35:34;4.00;59.40
30304;DHT22;17112;48.636;10.152;2023-02-26T13:38:09;4.10;59.30
30304;DHT22;17112;48.636;10.152;2023-02-26T13:40:50;4.10;59.30
30304;DHT22;17112;48.636;10.152;2023-02-26T13:48:52;4.30;59.40
30304;DHT22;17112;48.636;10.152;2023-02-26T13:54:34;4.40;58.20
30304;DHT22;17112;48.636;10.152;2023-02-26T13:57:07;4.50;58.30
30304;DHT22;17112;48.636;10.152;2023-02-26T14:04:57;4.50;58.50
30304;DHT22;17112;48.636;10.152;2023-02-26T14:10:43;4.70;58.70
30304;DHT22;17112;48.636;10.152;2023-02-26T14:13:16;4.90;58.70
30304;DHT22;17112;48.636;10.152;2023-02-26T14:16:09;5.00;58.00
30304;DHT22;17112;48.636;10.152;2023-02-26T14:18:40;5.20;57.40
30304;DHT22;17112;48.636;10.152;2023-02-26T14:24:00;5.30;56.80
30304;DHT22;17112;48.636;10.152;2023-02-26T14:26:29;5.40;56.80
30304;DHT22;17112;48.636;10.152;2023-02-26T14:34:24;5.80;54.90
30304;DHT22;17112;48.636;10.152;2023-02-26T14:36:53;5.90;56.10
30304;DHT22;17112;48.636;10.152;2023-02-26T14:39:39;6.00;56.00
30304;DHT22;17112;48.636;10.152;2023-02-26T14:47:53;6.00;55.00
30304;DHT22;17112;48.636;10.152;2023-02-26T14:50:21;5.90;55.30
30304;DHT22;17112;48.636;10.152;2023-02-26T15:17:26;4.90;57.30
30304;DHT22;17112;48.636;10.152;2023-02-26T15:22:40;4.90;57.50
30304;DHT22;17112;48.636;10.152;2023-02-26T15:27:51;4.90;56.80
30304;DHT22;17112;48.636;10.152;2023-02-26T15:30:17;4.90;57.20
30304;DHT22;17112;48.636;10.152;2023-02-26T15:32:43;4.90;57.20
30304;DHT22;17112;48.636;10.152;2023-02-26T15:35:19;4.90;56.70
30304;DHT22;17112;48.636;10.152;2023-02-26T15:37:49;4.80;56.90
30304;DHT22;17112;48.636;10.152;2023-02-26T15:40:16;4.80;57.30
30304;DHT22;17112;48.636;10.152;2023-02-26T15:42:43;4.70;57.60
30304;DHT22;17112;48.636;10.152;2023-02-26T15:47:55;4.50;57.80
30304;DHT22;17112;48.636;10.152;2023-02-26T15:50:26;4.40;57.80
30304;DHT22;17112;48.636;10.152;2023-02-26T15:52:56;4.30;58.00
30304;DHT22;17112;48.636;10.152;2023-02-26T15:55:22;4.20;58.40
30304;DHT22;17112;48.636;10.152;2023-02-26T15:57:48;4.10;58.80
30304;DHT22;17112;48.636;10.152;2023-02-26T16:00:16;4.00;59.10
30304;DHT22;17112;48.636;10.152;2023-02-26T16:02:48;3.90;59.00
30304;DHT22;17112;48.636;10.152;2023-02-26T16:05:14;3.80;59.30
30304;DHT22;17112;48.636;10.152;2023-02-26T16:07:40;3.70;59.10
30304;DHT22;17112;48.636;10.152;2023-02-26T16:10:26;3.60;59.50
30304;DHT22;17112;48.636;10.152;2023-02-26T16:12:53;3.50;59.70
30304;DHT22;17112;48.636;10.152;2023-02-26T16:15:31;3.50;59.70
30304;DHT22;17112;48.636;10.152;2023-02-26T16:17:59;3.50;59.80
30304;DHT22;17112;48.636;10.152;2023-02-26T16:20:27;3.60;59.90
30304;DHT22;17112;48.636;10.152;2023-02-26T16:22:55;3.50;59.90
30304;DHT22;17112;48.636;10.152;2023-02-26T16:25:27;3.50;59.70
30304;DHT22;17112;48.636;10.152;2023-02-26T16:28:00;3.40;59.80
30304;DHT22;17112;48.636;10.152;2023-02-26T16:30:31;3.50;59.90
30304;DHT22;17112;48.636;10.152;2023-02-26T16:32:58;3.50;59.80
30304;DHT22;17112;48.636;10.152;2023-02-26T16:35:30;3.50;59.80
30304;DHT22;17112;48.636;10.152;2023-02-26T16:37:59;3.50;59.60
30304;DHT22;17112;48.636;10.152;2023-02-26T16:40:35;3.80;59.70
30304;DHT22;17112;48.636;10.152;2023-02-26T16:43:05;3.50;59.40
30304;DHT22;17112;48.636;10.152;2023-02-26T16:48:13;3.50;59.50
30304;DHT22;17112;48.636;10.152;2023-02-26T16:50:40;3.40;59.50
30304;DHT22;17112;48.636;10.152;2023-02-26T16:53:15;3.40;59.50
30304;DHT22;17112;48.636;10.152;2023-02-26T16:55:45;3.40;59.40
30304;DHT22;17112;48.636;10.152;2023-02-26T16:58:13;3.30;59.30
30304;DHT22;17112;48.636;10.152;2023-02-26T17:00:43;3.40;59.70
30304;DHT22;17112;48.636;10.152;2023-02-26T17:03:20;3.30;59.80
30304;DHT22;17112;48.636;10.152;2023-02-26T17:05:55;3.30;60.00
30304;DHT22;17112;48.636;10.152;2023-02-26T17:08:27;3.30;60.20
30304;DHT22;17112;48.636;10.152;2023-02-26T17:11:05;3.60;60.30
30304;DHT22;17112;48.636;10.152;2023-02-26T17:13:32;3.30;60.10
30304;DHT22;17112;48.636;10.152;2023-02-26T17:16:03;3.20;60.00
30304;DHT22;17112;48.636;10.152;2023-02-26T17:18:30;3.20;59.80
30304;DHT22;17112;48.636;10.152;2023-02-26T17:20:57;3.20;59.50
30304;DHT22;17112;48.636;10.152;2023-02-26T17:23:27;3.20;59.20
30304;DHT22;17112;48.636;10.152;2023-02-26T17:25:53;3.20;59.20
30304;DHT22;17112;48.636;10.152;2023-02-26T17:28:26;3.20;59.30
30304;DHT22;17112;48.636;10.152;2023-02-26T17:30:53;3.30;59.50
30304;DHT22;17112;48.636;10.152;2023-02-26T17:33:19;3.20;59.40
30304;DHT22;17112;48.636;10.152;2023-02-26T17:35:45;3.20;59.90
30304;DHT22;17112;48.636;10.152;2023-02-26T17:38:12;3.10;60.00
30304;DHT22;17112;48.636;10.152;2023-02-26T17:40:39;3.30;60.60
30304;DHT22;17112;48.636;10.152;2023-02-26T17:43:05;2.90;62.30
30304;DHT22;17112;48.636;10.152;2023-02-26T17:45:32;2.90;62.60
30304;DHT22;17112;48.636;10.152;2023-02-26T17:47:59;2.80;62.20
30304;DHT22;17112;48.636;10.152;2023-02-26T17:50:43;2.70;62.60
30304;DHT22;17112;48.636;10.152;2023-02-26T17:53:11;2.60;62.80
30304;DHT22;17112;48.636;10.152;2023-02-26T17:55:37;2.60;62.30
30304;DHT22;17112;48.636;10.152;2023-02-26T17:58:05;2.60;62.60
30304;DHT22;17112;48.636;10.152;2023-02-26T18:00:32;2.50;62.80
30304;DHT22;17112;48.636;10.152;2023-02-26T18:03:04;2.50;63.10
30304;DHT22;17112;48.636;10.152;2023-02-26T18:05:30;2.50;63.10
30304;DHT22;17112;48.636;10.152;2023-02-26T18:08:00;2.50;63.30
30304;DHT22;17112;48.636;10.152;2023-02-26T18:10:26;2.40;62.80
30304;DHT22;17112;48.636;10.152;2023-02-26T18:12:51;2.60;63.10
30304;DHT22;17112;48.636;10.152;2023-02-26T18:15:17;2.40;62.70
30304;DHT22;17112;48.636;10.152;2023-02-26T18:17:43;2.40;62.90
30304;DHT22;17112;48.636;10.152;2023-02-26T18:20:17;2.40;62.70
30304;DHT22;17112;48.636;10.152;2023-02-26T18:22:43;2.40;63.20
30304;DHT22;17112;48.636;10.152;2023-02-26T18:25:11;2.40;63.00
30304;DHT22;17112;48.636;10.152;2023-02-26T18:27:36;2.40;63.10
30304;DHT22;17112;48.636;10.152;2023-02-26T18:30:02;2.40;62.90
30304;DHT22;17112;48.636;10.152;2023-02-26T18:32:29;2.40;63.00
30304;DHT22;17112;48.636;10.152;2023-02-26T18:34:54;2.40;62.80
30304;DHT22;17112;48.636;10.152;2023-02-26T18:37:23;2.40;62.80
30304;DHT22;17112;48.636;10.152;2023-02-26T18:39:49;2.40;62.60
30304;DHT22;17112;48.636;10.152;2023-02-26T18:44:43;2.40;62.40
30304;DHT22;17112;48.636;10.152;2023-02-26T18:47:09;2.40;62.40
30304;DHT22;17112;48.636;10.152;2023-02-26T18:49:35;2.50;62.30
30304;DHT22;17112;48.636;10.152;2023-02-26T18:52:01;2.40;62.10
30304;DHT22;17112;48.636;10.152;2023-02-26T18:54:27;2.30;61.90
30304;DHT22;17112;48.636;10.152;2023-02-26T18:56:52;2.30;61.90
30304;DHT22;17112;48.636;10.152;2023-02-26T18:59:18;2.30;61.90
30304;DHT22;17112;48.636;10.152;2023-02-26T19:01:44;2.30;61.20